Time;durP1;ratioP1;P1;durP2;ratioP2;P2;SDS_P1;SDS_P2;PMS_P1;PMS_P2;Temp;Humidity;BMP_temperature;BMP_pressure;BME280_temperature;BME280_humidity;BME280_pressure;Samples;Min_cycle;Max_cycle;Signal;HPM_P1;HPM_P2
2022/08/23 00:02:22;;;;;;;;;;;21.30;99.90;;;;;;5075816;28;19909;-82
2022/08/23 00:04:48;;;;;;;;;;;21.20;99.90;;;;;;5075162;28;20011;-82
2022/08/23 00:07:14;;;;;;;;;;;21.20;99.90;;;;;;5074596;28;19966;-82
2022/08/23 00:09:39;;;;;;;;;;;21.20;99.90;;;;;;5074640;28;19908;-82
2022/08/23 00:12:08;;;;;;;;;;;21.10;99.90;;;;;;5075087;28;19912;-82
2022/08/23 00:14:35;;;;;;;;;;;21.10;99.90;;;;;;5056724;28;20046;-81
2022/08/23 00:17:01;;;;;;;;;;;21.00;99.90;;;;;;5074973;28;19908;-82
2022/08/23 00:19:26;;;;;;;;;;;21.00;99.90;;;;;;5074662;28;19995;-82
2022/08/23 00:21:53;;;;;;;;;;;21.00;99.90;;;;;;5074705;28;19909;-82
2022/08/23 00:24:19;;;;;;;;;;;20.90;99.90;;;;;;5074546;28;20403;-81
2022/08/23 00:26:51;;;;;;;;;;;20.90;99.90;;;;;;5074492;28;20104;-81
2022/08/23 00:29:17;;;;;;;;;;;20.90;99.90;;;;;;5054917;28;19932;-80
2022/08/23 00:31:42;;;;;;;;;;;20.90;99.90;;;;;;5071849;28;20349;-81
2022/08/23 00:34:08;;;;;;;;;;;20.90;99.90;;;;;;5072105;28;19958;-80
2022/08/23 00:36:33;;;;;;;;;;;20.80;99.90;;;;;;5071569;28;19909;-81
2022/08/23 00:39:00;;;;;;;;;;;20.80;99.90;;;;;;5071927;28;19931;-80
2022/08/23 00:41:26;;;;;;;;;;;20.80;99.90;;;;;;5071745;28;19919;-80
2022/08/23 00:49:25;;;;;;;;;;;20.80;99.90;;;;;;5071891;28;19921;-80
2022/08/23 00:51:56;;;;;;;;;;;20.80;99.90;;;;;;5053902;28;19916;-80
2022/08/23 00:54:23;;;;;;;;;;;20.70;99.90;;;;;;5053778;28;20346;-80
2022/08/23 00:56:49;;;;;;;;;;;20.70;99.90;;;;;;5053418;28;19916;-80
2022/08/23 00:59:14;;;;;;;;;;;20.70;99.90;;;;;;5071722;28;20364;-80
2022/08/23 01:01:42;;;;;;;;;;;20.60;99.90;;;;;;5053606;28;19965;-80
2022/08/23 01:04:10;;;;;;;;;;;20.60;99.90;;;;;;5074147;28;19915;-80
2022/08/23 01:06:38;;;;;;;;;;;20.50;99.90;;;;;;5074957;28;19912;-81
2022/08/23 01:09:07;;;;;;;;;;;20.40;99.90;;;;;;5075002;28;20050;-80
2022/08/23 01:11:39;;;;;;;;;;;20.40;99.90;;;;;;5075154;28;19916;-80
2022/08/23 01:14:10;;;;;;;;;;;20.30;99.90;;;;;;5075073;28;19931;-80
2022/08/23 01:16:44;;;;;;;;;;;20.30;99.90;;;;;;5074821;28;20110;-79
2022/08/23 01:19:16;;;;;;;;;;;20.30;99.90;;;;;;5074952;28;19970;-80
2022/08/23 01:21:45;;;;;;;;;;;20.20;99.90;;;;;;5074877;28;19989;-80
2022/08/23 01:24:11;;;;;;;;;;;20.20;99.90;;;;;;5074891;28;19913;-81
2022/08/23 01:26:37;;;;;;;;;;;20.20;99.90;;;;;;5074535;28;19913;-80
2022/08/23 01:29:05;;;;;;;;;;;20.20;99.90;;;;;;5075290;28;19919;-81
2022/08/23 01:31:31;;;;;;;;;;;20.10;99.90;;;;;;5058165;28;19916;-81
2022/08/23 01:33:58;;;;;;;;;;;20.10;99.90;;;;;;5076167;28;19914;-82
2022/08/23 01:36:24;;;;;;;;;;;20.10;99.90;;;;;;5076413;28;19916;-82
2022/08/23 01:38:49;;;;;;;;;;;20.00;99.90;;;;;;5076501;28;19908;-81
2022/08/23 01:41:15;;;;;;;;;;;20.00;99.90;;;;;;5076033;28;20437;-81
2022/08/23 01:43:40;;;;;;;;;;;20.00;99.90;;;;;;5076248;28;19908;-81
2022/08/23 01:46:07;;;;;;;;;;;20.00;99.90;;;;;;5076460;28;19996;-82
2022/08/23 01:48:33;;;;;;;;;;;20.00;99.90;;;;;;5075714;28;19959;-80
2022/08/23 01:50:58;;;;;;;;;;;19.90;99.90;;;;;;5057817;28;20322;-82
2022/08/23 01:53:24;;;;;;;;;;;19.90;99.90;;;;;;5057631;28;19916;-82
2022/08/23 01:55:49;;;;;;;;;;;19.90;99.90;;;;;;5075416;28;19947;-82
2022/08/23 01:58:15;;;;;;;;;;;19.90;99.90;;;;;;5075860;28;19913;-82
2022/08/23 02:00:41;;;;;;;;;;;20.00;99.90;;;;;;5075719;28;19952;-81
2022/08/23 02:03:07;;;;;;;;;;;20.00;99.90;;;;;;5057480;28;19915;-82
2022/08/23 02:05:33;;;;;;;;;;;19.90;99.90;;;;;;5075167;28;19999;-80
2022/08/23 02:08:59;;;;;;;;;;;19.90;99.90;;;;;;5075276;28;20354;-81
2022/08/23 02:10:45;;;;;;;;;;;19.80;99.90;;;;;;5075230;28;19909;-81
2022/08/23 02:13:11;;;;;;;;;;;19.80;99.90;;;;;;5075403;28;19996;-81
2022/08/23 02:15:38;;;;;;;;;;;19.80;99.90;;;;;;5074332;28;19977;-80
2022/08/23 02:18:04;;;;;;;;;;;19.70;99.90;;;;;;5057235;28;19951;-81
2022/08/23 02:20:30;;;;;;;;;;;19.80;99.90;;;;;;5075026;28;19916;-81
2022/08/23 02:22:55;;;;;;;;;;;19.70;99.90;;;;;;5075323;28;19909;-80
2022/08/23 02:25:21;;;;;;;;;;;19.80;99.90;;;;;;5075069;28;19940;-82
2022/08/23 02:27:47;;;;;;;;;;;19.70;99.90;;;;;;5075003;28;20287;-82
2022/08/23 02:30:12;;;;;;;;;;;19.70;99.90;;;;;;5074920;28;19932;-81
2022/08/23 02:32:38;;;;;;;;;;;19.70;99.90;;;;;;5108520;22;19931;-76
2022/08/23 02:35:04;;;;;;;;;;;19.60;99.90;;;;;;5095601;28;20320;-77
2022/08/23 02:37:29;;;;;;;;;;;19.60;99.90;;;;;;5095170;28;19915;-77
2022/08/23 02:39:55;;;;;;;;;;;19.60;99.90;;;;;;5077013;28;19995;-77
2022/08/23 02:42:20;;;;;;;;;;;19.50;99.90;;;;;;5055350;28;19962;-75
2022/08/23 02:44:46;;;;;;;;;;;19.40;99.90;;;;;;5055063;28;19909;-77
2022/08/23 02:47:12;;;;;;;;;;;19.50;99.90;;;;;;5055109;28;19931;-77
2022/08/23 02:49:37;;;;;;;;;;;19.40;99.90;;;;;;5055065;28;19960;-76
2022/08/23 02:52:05;;;;;;;;;;;19.40;99.90;;;;;;5055013;28;19915;-77
2022/08/23 02:54:31;;;;;;;;;;;19.40;99.90;;;;;;5055071;28;19931;-76
2022/08/23 02:56:56;;;;;;;;;;;19.40;99.90;;;;;;5054926;28;20007;-76
2022/08/23 02:59:22;;;;;;;;;;;19.40;99.90;;;;;;5054960;28;19917;-76
2022/08/23 03:01:48;;;;;;;;;;;19.40;99.90;;;;;;5054229;28;19909;-76
2022/08/23 03:04:13;;;;;;;;;;;19.40;99.90;;;;;;5054562;28;20335;-77
2022/08/23 03:06:39;;;;;;;;;;;19.40;99.90;;;;;;5054139;28;19991;-77
2022/08/23 03:09:06;;;;;;;;;;;19.30;99.90;;;;;;5054719;28;20012;-76
2022/08/23 03:11:32;;;;;;;;;;;19.30;99.90;;;;;;5054547;28;19913;-75
2022/08/23 03:13:59;;;;;;;;;;;19.20;99.90;;;;;;5054492;28;19975;-77
2022/08/23 03:16:25;;;;;;;;;;;19.20;99.90;;;;;;5054554;28;20359;-76
2022/08/23 03:18:51;;;;;;;;;;;19.20;99.90;;;;;;5054755;28;19957;-76
2022/08/23 03:21:17;;;;;;;;;;;19.20;99.90;;;;;;5054274;28;19952;-77
2022/08/23 03:23:43;;;;;;;;;;;19.10;99.90;;;;;;5054643;28;19915;-77
2022/08/23 03:26:09;;;;;;;;;;;19.10;99.90;;;;;;5054582;28;19908;-76
2022/08/23 03:28:36;;;;;;;;;;;19.00;99.90;;;;;;5054358;28;19912;-76
2022/08/23 03:31:02;;;;;;;;;;;19.00;99.90;;;;;;5054448;28;19959;-76
2022/08/23 03:33:27;;;;;;;;;;;19.00;99.90;;;;;;5054457;28;19913;-77
2022/08/23 03:35:57;;;;;;;;;;;18.90;99.90;;;;;;5053964;28;20220;-76
2022/08/23 03:38:22;;;;;;;;;;;18.80;99.90;;;;;;5054377;28;19916;-76
2022/08/23 03:40:51;;;;;;;;;;;18.80;99.90;;;;;;5054126;28;20257;-76
2022/08/23 03:43:17;;;;;;;;;;;18.80;99.90;;;;;;5054099;28;20288;-77
2022/08/23 03:45:43;;;;;;;;;;;18.80;99.90;;;;;;5053731;28;19916;-76
2022/08/23 03:48:08;;;;;;;;;;;18.70;99.90;;;;;;5053376;28;19913;-75
2022/08/23 03:50:34;;;;;;;;;;;18.70;99.90;;;;;;5054053;28;20004;-76
2022/08/23 03:53:00;;;;;;;;;;;18.60;99.90;;;;;;5054226;28;20058;-76
2022/08/23 03:55:26;;;;;;;;;;;18.60;99.90;;;;;;5054070;28;19978;-77
2022/08/23 03:57:51;;;;;;;;;;;18.60;99.90;;;;;;5054168;28;20367;-76
2022/08/23 04:00:17;;;;;;;;;;;18.50;99.90;;;;;;5054123;28;19941;-76
2022/08/23 04:02:43;;;;;;;;;;;18.50;99.90;;;;;;5054209;28;20364;-76
2022/08/23 04:05:09;;;;;;;;;;;18.50;99.90;;;;;;5054029;28;20305;-76
2022/08/23 04:07:38;;;;;;;;;;;18.50;99.90;;;;;;5053831;28;19912;-75
2022/08/23 04:10:05;;;;;;;;;;;18.40;99.90;;;;;;5053798;28;19916;-76
2022/08/23 04:12:31;;;;;;;;;;;18.30;99.90;;;;;;5054112;28;19913;-76
2022/08/23 04:14:56;;;;;;;;;;;18.40;99.90;;;;;;5053939;28;19978;-75
2022/08/23 04:17:22;;;;;;;;;;;18.40;99.90;;;;;;5053742;28;20000;-76
2022/08/23 04:19:48;;;;;;;;;;;18.40;99.90;;;;;;5053884;28;19962;-76
2022/08/23 04:22:15;;;;;;;;;;;18.40;99.90;;;;;;5053478;28;19915;-76
2022/08/23 04:24:44;;;;;;;;;;;18.30;99.90;;;;;;5054042;28;19915;-76
2022/08/23 04:27:11;;;;;;;;;;;18.30;99.90;;;;;;5053548;28;19958;-76
2022/08/23 04:29:38;;;;;;;;;;;18.30;99.90;;;;;;5053793;28;19918;-75
2022/08/23 04:32:05;;;;;;;;;;;18.30;99.90;;;;;;5053658;28;20424;-77
2022/08/23 04:34:32;;;;;;;;;;;18.30;99.90;;;;;;5054045;28;19909;-77
2022/08/23 04:36:58;;;;;;;;;;;18.30;99.90;;;;;;5053611;28;19916;-77
2022/08/23 04:39:24;;;;;;;;;;;18.30;99.90;;;;;;5056679;28;19908;-77
2022/08/23 04:44:34;;;;;;;;;;;18.40;99.90;;;;;;5075859;28;19955;-76
2022/08/23 04:47:00;;;;;;;;;;;18.40;99.90;;;;;;5057501;28;19909;-76
2022/08/23 04:49:26;;;;;;;;;;;18.40;99.90;;;;;;5057376;28;20333;-76
2022/08/23 04:51:51;;;;;;;;;;;18.40;99.90;;;;;;5057542;28;20415;-77
2022/08/23 04:54:17;;;;;;;;;;;18.50;99.90;;;;;;5057598;28;20303;-77
2022/08/23 04:56:43;;;;;;;;;;;18.50;99.90;;;;;;5057239;28;20295;-77
2022/08/23 04:59:09;;;;;;;;;;;18.60;99.90;;;;;;5056926;28;19909;-76
2022/08/23 05:01:34;;;;;;;;;;;18.70;99.90;;;;;;5057169;28;19908;-77
2022/08/23 05:04:01;;;;;;;;;;;18.70;99.90;;;;;;5057256;28;19917;-77
2022/08/23 05:06:27;;;;;;;;;;;18.70;99.90;;;;;;5057085;28;19909;-76
2022/08/23 05:08:53;;;;;;;;;;;18.80;99.90;;;;;;5057075;28;19916;-77
2022/08/23 05:11:19;;;;;;;;;;;18.80;99.90;;;;;;5057088;28;19931;-77
2022/08/23 05:13:45;;;;;;;;;;;18.80;99.90;;;;;;5056993;28;20375;-76
2022/08/23 05:16:11;;;;;;;;;;;18.80;99.90;;;;;;5057965;28;20157;-76
2022/08/23 05:18:36;;;;;;;;;;;18.90;99.90;;;;;;5076519;28;19935;-77
2022/08/23 05:21:02;;;;;;;;;;;18.90;99.90;;;;;;5076737;28;19908;-77
2022/08/23 05:23:28;;;;;;;;;;;19.00;99.90;;;;;;5066588;28;19909;-78
2022/08/23 05:25:57;;;;;;;;;;;19.00;99.90;;;;;;5056593;28;20390;-77
2022/08/23 05:28:26;;;;;;;;;;;19.10;99.90;;;;;;5056963;28;20374;-76
2022/08/23 05:30:59;;;;;;;;;;;19.10;99.90;;;;;;5056779;28;19973;-77
2022/08/23 05:33:25;;;;;;;;;;;19.20;99.90;;;;;;5056853;28;20276;-77
2022/08/23 05:35:51;;;;;;;;;;;19.30;99.90;;;;;;5056550;28;20006;-77
2022/08/23 05:38:17;;;;;;;;;;;19.40;99.90;;;;;;5056688;28;19916;-76
2022/08/23 05:40:49;;;;;;;;;;;19.40;99.90;;;;;;5039917;28;22363;-77
2022/08/23 05:43:15;;;;;;;;;;;19.50;99.90;;;;;;5056469;28;19908;-76
2022/08/23 05:45:40;;;;;;;;;;;19.60;99.90;;;;;;5056176;28;19908;-76
2022/08/23 05:48:06;;;;;;;;;;;19.80;99.90;;;;;;5056541;28;20003;-77
2022/08/23 05:50:32;;;;;;;;;;;19.90;99.90;;;;;;5055778;28;20268;-76
2022/08/23 05:52:57;;;;;;;;;;;20.10;99.90;;;;;;5056241;28;19909;-76
2022/08/23 05:55:23;;;;;;;;;;;20.30;99.90;;;;;;5056132;28;19909;-77
2022/08/23 05:57:51;;;;;;;;;;;20.40;99.90;;;;;;5055897;28;20425;-76
2022/08/23 06:00:17;;;;;;;;;;;20.60;99.90;;;;;;5056435;28;20368;-76
2022/08/23 06:02:43;;;;;;;;;;;20.80;99.90;;;;;;5058232;28;19973;-76
2022/08/23 06:05:08;;;;;;;;;;;21.00;99.90;;;;;;5074604;28;19908;-76
2022/08/23 06:07:34;;;;;;;;;;;21.30;99.90;;;;;;5075625;28;19916;-77
2022/08/23 06:10:00;;;;;;;;;;;21.50;99.90;;;;;;5061352;28;20352;-75
2022/08/23 06:12:26;;;;;;;;;;;21.70;99.90;;;;;;5055906;28;19919;-76
2022/08/23 06:14:54;;;;;;;;;;;21.90;99.90;;;;;;5061893;28;19958;-76
2022/08/23 06:17:20;;;;;;;;;;;22.00;99.90;;;;;;5075377;28;19908;-76
2022/08/23 06:19:46;;;;;;;;;;;22.20;99.90;;;;;;5072334;28;20422;-78
2022/08/23 06:22:11;;;;;;;;;;;22.30;99.90;;;;;;5090314;28;19912;-78
2022/08/23 06:24:37;;;;;;;;;;;22.40;99.90;;;;;;5076164;28;19908;-78
2022/08/23 06:27:03;;;;;;;;;;;22.50;99.90;;;;;;5076474;28;19908;-76
2022/08/23 06:29:28;;;;;;;;;;;22.50;99.90;;;;;;5076201;28;20004;-78
2022/08/23 06:31:54;;;;;;;;;;;22.60;99.90;;;;;;5076787;28;19916;-78
2022/08/23 06:34:22;;;;;;;;;;;22.60;99.90;;;;;;5072753;28;19919;-77
2022/08/23 06:36:52;;;;;;;;;;;22.70;99.90;;;;;;5063070;28;19987;-79
2022/08/23 06:39:19;;;;;;;;;;;22.70;99.90;;;;;;5055525;28;19909;-76
2022/08/23 06:41:47;;;;;;;;;;;22.70;99.90;;;;;;5062343;28;19913;-79
2022/08/23 06:44:13;;;;;;;;;;;22.80;99.90;;;;;;5075257;28;20256;-78
2022/08/23 06:46:38;;;;;;;;;;;22.90;99.90;;;;;;5073715;28;19958;-79
2022/08/23 06:49:05;;;;;;;;;;;22.90;99.90;;;;;;5075278;28;19918;-78
2022/08/23 06:51:33;;;;;;;;;;;23.10;99.90;;;;;;5065077;28;19959;-78
2022/08/23 06:54:00;;;;;;;;;;;23.10;99.90;;;;;;5075480;28;19919;-78
2022/08/23 06:56:26;;;;;;;;;;;23.20;99.90;;;;;;5056772;28;19908;-77
2022/08/23 06:58:52;;;;;;;;;;;23.30;99.90;;;;;;5065328;28;19931;-77
2022/08/23 07:01:36;;;;;;;;;;;23.40;99.90;;;;;;5073849;28;19960;-77
2022/08/23 07:04:03;;;;;;;;;;;23.40;99.90;;;;;;5055441;28;19909;-78
2022/08/23 07:06:29;;;;;;;;;;;23.40;99.90;;;;;;5054656;28;19913;-78
2022/08/23 07:08:55;;;;;;;;;;;23.40;99.90;;;;;;5055245;28;19920;-78
2022/08/23 07:11:21;;;;;;;;;;;23.50;99.90;;;;;;5055085;28;20061;-77
2022/08/23 07:13:47;;;;;;;;;;;23.40;99.90;;;;;;5055001;28;20007;-77
2022/08/23 07:16:14;;;;;;;;;;;23.50;99.90;;;;;;5054681;28;20017;-77
2022/08/23 07:18:40;;;;;;;;;;;23.60;99.90;;;;;;5055138;28;19915;-77
2022/08/23 07:21:05;;;;;;;;;;;23.70;99.90;;;;;;5056030;28;20279;-78
2022/08/23 07:23:32;;;;;;;;;;;23.70;99.90;;;;;;5056009;28;19912;-83
2022/08/23 07:26:03;;;;;;;;;;;23.80;99.90;;;;;;5054613;28;20007;-82
2022/08/23 07:28:28;;;;;;;;;;;23.90;99.90;;;;;;5054890;28;19966;-75
2022/08/23 07:30:54;;;;;;;;;;;24.00;99.90;;;;;;5054281;28;19912;-78
2022/08/23 07:33:21;;;;;;;;;;;24.00;99.90;;;;;;5054632;28;19912;-77
2022/08/23 07:35:50;;;;;;;;;;;24.10;99.90;;;;;;5053462;28;19920;-77
2022/08/23 07:38:16;;;;;;;;;;;24.20;99.90;;;;;;5071134;28;19915;-77
2022/08/23 07:40:42;;;;;;;;;;;24.30;99.90;;;;;;5070969;28;19915;-77
2022/08/23 07:43:07;;;;;;;;;;;24.40;99.90;;;;;;5071008;28;19991;-76
2022/08/23 07:45:34;;;;;;;;;;;24.40;99.90;;;;;;5070848;28;20471;-77
2022/08/23 07:48:01;;;;;;;;;;;24.50;99.90;;;;;;5070750;28;19916;-77
2022/08/23 07:50:26;;;;;;;;;;;24.60;99.90;;;;;;5070988;28;20275;-77
2022/08/23 07:52:52;;;;;;;;;;;24.70;99.90;;;;;;5071036;28;20007;-76
2022/08/23 07:55:18;;;;;;;;;;;24.80;99.90;;;;;;5070950;28;20364;-76
2022/08/23 07:57:43;;;;;;;;;;;24.90;99.90;;;;;;5070689;28;20011;-76
2022/08/23 08:00:09;;;;;;;;;;;25.00;99.90;;;;;;5070852;28;20431;-77
2022/08/23 08:02:35;;;;;;;;;;;25.10;99.90;;;;;;5070806;28;19916;-77
2022/08/23 08:05:00;;;;;;;;;;;25.20;99.90;;;;;;5070952;28;20511;-77
2022/08/23 08:07:26;;;;;;;;;;;25.30;99.90;;;;;;5070579;28;19909;-76
2022/08/23 08:09:52;;;;;;;;;;;25.40;99.90;;;;;;5070885;28;19917;-77
2022/08/23 08:12:18;;;;;;;;;;;25.50;99.90;;;;;;5071011;28;20394;-77
2022/08/23 08:14:44;;;;;;;;;;;25.60;99.90;;;;;;5074660;28;19912;-76
2022/08/23 08:17:10;;;;;;;;;;;25.70;99.90;;;;;;5074635;28;19909;-76
2022/08/23 08:19:36;;;;;;;;;;;25.80;99.90;;;;;;5074932;28;20010;-77
2022/08/23 08:22:01;;;;;;;;;;;25.90;99.90;;;;;;5075017;28;20375;-76
2022/08/23 08:24:27;;;;;;;;;;;26.00;99.90;;;;;;5074815;28;19912;-76
2022/08/23 08:26:53;;;;;;;;;;;26.00;99.90;;;;;;5074796;28;19958;-76
2022/08/23 08:29:18;;;;;;;;;;;26.10;99.90;;;;;;5074693;28;19912;-77
2022/08/23 08:31:45;;;;;;;;;;;26.20;99.90;;;;;;5076993;28;20275;-76
2022/08/23 08:34:11;;;;;;;;;;;26.30;99.90;;;;;;5090507;22;20027;-85
2022/08/23 08:36:44;;;;;;;;;;;26.70;99.90;;;;;;5060953;28;20368;-86
2022/08/23 08:39:11;;;;;;;;;;;27.90;99.90;;;;;;5058315;28;19909;-85
2022/08/23 08:41:56;;;;;;;;;;;29.40;99.90;;;;;;5075302;28;20361;-85
2022/08/23 08:44:30;;;;;;;;;;;30.90;97.30;;;;;;5074904;28;19908;-85
2022/08/23 08:46:56;;;;;;;;;;;32.80;90.00;;;;;;5074872;28;20377;-85
2022/08/23 08:49:22;;;;;;;;;;;34.20;82.00;;;;;;5074569;28;19983;-86
2022/08/23 08:51:57;;;;;;;;;;;35.40;74.80;;;;;;5074844;28;19908;-86
2022/08/23 08:54:24;;;;;;;;;;;36.20;66.70;;;;;;5074865;28;19915;-85
2022/08/23 08:56:51;;;;;;;;;;;37.20;61.00;;;;;;5074535;28;19912;-86
2022/08/23 08:59:21;;;;;;;;;;;37.90;58.20;;;;;;5074748;28;19908;-86
2022/08/23 09:01:47;;;;;;;;;;;38.30;53.80;;;;;;5074826;28;19917;-86
2022/08/23 09:04:13;;;;;;;;;;;39.10;51.00;;;;;;5074670;28;19909;-88
2022/08/23 09:06:52;;;;;;;;;;;39.90;49.40;;;;;;5074562;28;19908;-87
2022/08/23 09:09:37;;;;;;;;;;;40.30;48.60;;;;;;5074548;28;19948;-88
2022/08/23 09:12:11;;;;;;;;;;;40.80;46.50;;;;;;5074749;28;20354;-87
2022/08/23 09:14:40;;;;;;;;;;;41.50;44.20;;;;;;5074631;28;19908;-88
2022/08/23 09:17:14;;;;;;;;;;;42.40;44.00;;;;;;5074796;28;19916;-88
2022/08/23 09:19:40;;;;;;;;;;;42.90;41.00;;;;;;5074494;28;19970;-88
2022/08/23 09:22:13;;;;;;;;;;;42.30;40.30;;;;;;5074969;28;20319;-88
2022/08/23 09:24:40;;;;;;;;;;;42.30;39.50;;;;;;5074533;28;19909;-88
2022/08/23 09:27:07;;;;;;;;;;;42.70;39.50;;;;;;5074148;28;20000;-88
2022/08/23 09:29:34;;;;;;;;;;;42.70;37.80;;;;;;5064510;28;19944;-89
2022/08/23 09:32:23;;;;;;;;;;;42.60;37.70;;;;;;5074246;28;19954;-88
2022/08/23 09:34:49;;;;;;;;;;;42.60;37.30;;;;;;5073869;28;20019;-88
2022/08/23 09:37:17;;;;;;;;;;;43.20;36.60;;;;;;5074051;28;19908;-88
2022/08/23 09:39:46;;;;;;;;;;;43.70;37.60;;;;;;5074018;28;20328;-88
2022/08/23 09:42:27;;;;;;;;;;;44.20;38.50;;;;;;5074231;28;19915;-88
2022/08/23 09:44:53;;;;;;;;;;;44.80;35.90;;;;;;5070892;28;20285;-88
2022/08/23 09:47:18;;;;;;;;;;;45.10;35.10;;;;;;5053699;28;19996;-89
2022/08/23 09:49:46;;;;;;;;;;;45.20;34.60;;;;;;5053832;28;20012;-88
2022/08/23 09:52:25;;;;;;;;;;;44.90;34.70;;;;;;5054279;28;20293;-88
2022/08/23 09:55:01;;;;;;;;;;;44.70;34.00;;;;;;5053752;28;19912;-89
2022/08/23 09:57:28;;;;;;;;;;;44.90;33.80;;;;;;5053650;28;20433;-89
2022/08/23 09:59:55;;;;;;;;;;;45.20;33.10;;;;;;5054057;28;19995;-88
2022/08/23 10:02:20;;;;;;;;;;;45.40;33.70;;;;;;5053817;28;19913;-89
2022/08/23 10:05:09;;;;;;;;;;;45.90;33.80;;;;;;5053911;28;19995;-88
2022/08/23 10:07:40;;;;;;;;;;;46.30;33.30;;;;;;5053271;28;19935;-87
2022/08/23 10:10:22;;;;;;;;;;;46.70;33.30;;;;;;5053603;28;20262;-88
2022/08/23 10:12:48;;;;;;;;;;;46.70;33.40;;;;;;5053355;28;19919;-87
2022/08/23 10:15:14;;;;;;;;;;;46.70;31.70;;;;;;5053289;28;19908;-88
2022/08/23 10:17:46;;;;;;;;;;;46.10;30.00;;;;;;5053602;28;19912;-88
2022/08/23 10:20:20;;;;;;;;;;;45.60;30.80;;;;;;5053275;28;20316;-88
2022/08/23 10:23:14;;;;;;;;;;;44.30;31.00;;;;;;5053329;28;20445;-89
2022/08/23 10:25:54;;;;;;;;;;;42.80;30.10;;;;;;5037763;28;19909;-88
2022/08/23 10:31:09;;;;;;;;;;;41.00;31.90;;;;;;5054433;28;19931;-88
2022/08/23 10:33:40;;;;;;;;;;;40.10;34.00;;;;;;5052960;28;19917;-87
2022/08/23 10:36:32;;;;;;;;;;;39.10;35.10;;;;;;5052222;28;19909;-86
2022/08/23 10:39:02;;;;;;;;;;;38.80;35.20;;;;;;5057630;28;19919;-88
2022/08/23 10:41:37;;;;;;;;;;;39.00;36.70;;;;;;5052730;28;20015;-87
2022/08/23 10:44:18;;;;;;;;;;;38.90;36.80;;;;;;5052706;28;19913;-88
2022/08/23 10:47:04;;;;;;;;;;;39.10;36.50;;;;;;5052608;28;19912;-88
2022/08/23 10:49:31;;;;;;;;;;;39.10;37.00;;;;;;5052175;28;19921;-89
2022/08/23 10:51:56;;;;;;;;;;;38.40;35.00;;;;;;5052668;28;20000;-88
2022/08/23 10:54:44;;;;;;;;;;;38.00;37.50;;;;;;5052613;28;20333;-86
2022/08/23 10:57:13;;;;;;;;;;;38.00;37.40;;;;;;5068791;28;19916;-87
2022/08/23 10:59:39;;;;;;;;;;;38.20;37.00;;;;;;5069535;28;19909;-87
2022/08/23 11:02:13;;;;;;;;;;;38.20;38.10;;;;;;5052248;28;19916;-87
2022/08/23 11:04:50;;;;;;;;;;;38.20;36.30;;;;;;5052231;28;19913;-87
2022/08/23 11:07:20;;;;;;;;;;;37.60;36.00;;;;;;5052173;28;19916;-87
2022/08/23 11:09:48;;;;;;;;;;;36.80;38.00;;;;;;5052053;28;20330;-87
2022/08/23 11:12:22;;;;;;;;;;;36.00;37.80;;;;;;5052284;28;20323;-86
2022/08/23 11:14:55;;;;;;;;;;;35.40;38.80;;;;;;5052304;28;19960;-87
2022/08/23 11:17:24;;;;;;;;;;;34.80;38.50;;;;;;5051928;28;20369;-87
2022/08/23 11:19:49;;;;;;;;;;;34.30;39.20;;;;;;5052031;28;20019;-87
2022/08/23 11:22:35;;;;;;;;;;;33.70;41.40;;;;;;5052121;28;20410;-87
2022/08/23 11:25:21;;;;;;;;;;;33.40;40.70;;;;;;5020006;28;19967;-86
2022/08/23 11:27:46;;;;;;;;;;;33.10;41.30;;;;;;5058288;28;20422;-87
2022/08/23 11:30:30;;;;;;;;;;;32.90;41.00;;;;;;5051793;28;19909;-86
2022/08/23 11:32:59;;;;;;;;;;;32.60;42.40;;;;;;5051658;28;19949;-85
2022/08/23 11:35:34;;;;;;;;;;;32.50;42.70;;;;;;5051786;28;19932;-86
2022/08/23 11:38:00;;;;;;;;;;;32.50;43.70;;;;;;5051776;28;19948;-86
2022/08/23 11:40:54;;;;;;;;;;;32.40;43.20;;;;;;5063181;28;19908;-87
2022/08/23 11:43:31;;;;;;;;;;;32.30;43.90;;;;;;5071833;28;20414;-87
2022/08/23 11:46:17;;;;;;;;;;;32.30;44.80;;;;;;5071664;28;19909;-87
2022/08/23 11:48:47;;;;;;;;;;;32.20;43.50;;;;;;5059957;28;20422;-87
2022/08/23 11:51:19;;;;;;;;;;;32.00;44.00;;;;;;5071438;28;20373;-87
2022/08/23 11:53:48;;;;;;;;;;;32.00;43.90;;;;;;5071399;28;19923;-86
2022/08/23 11:56:19;;;;;;;;;;;31.90;45.00;;;;;;5071339;28;20422;-87
2022/08/23 11:58:59;;;;;;;;;;;31.80;46.40;;;;;;5071555;28;20285;-86
2022/08/23 12:01:30;;;;;;;;;;;31.50;45.80;;;;;;5071288;28;19912;-87
2022/08/23 12:03:58;;;;;;;;;;;31.50;45.40;;;;;;5071712;28;19908;-87
2022/08/23 12:06:25;;;;;;;;;;;31.60;45.20;;;;;;5071320;28;19908;-87
2022/08/23 12:09:00;;;;;;;;;;;31.50;45.90;;;;;;5071594;28;19951;-86
2022/08/23 12:11:46;;;;;;;;;;;31.70;44.60;;;;;;5071383;28;20058;-86
2022/08/23 12:14:29;;;;;;;;;;;31.90;44.50;;;;;;5071289;28;19909;-86
2022/08/23 12:16:56;;;;;;;;;;;31.90;45.20;;;;;;5071153;28;20423;-87
2022/08/23 12:19:31;;;;;;;;;;;32.00;45.00;;;;;;5071438;28;19940;-87
2022/08/23 12:21:57;;;;;;;;;;;31.90;45.40;;;;;;5071438;28;19944;-87
2022/08/23 12:24:22;;;;;;;;;;;32.10;44.60;;;;;;5071429;28;19909;-87
2022/08/23 12:27:07;;;;;;;;;;;32.00;45.30;;;;;;5071054;28;20380;-85
2022/08/23 12:29:47;;;;;;;;;;;32.00;45.50;;;;;;5070944;28;20338;-88
2022/08/23 12:32:30;;;;;;;;;;;32.40;45.70;;;;;;5071233;28;19947;-86
2022/08/23 12:35:08;;;;;;;;;;;32.70;46.60;;;;;;5071552;28;20331;-86
2022/08/23 12:37:43;;;;;;;;;;;32.90;46.10;;;;;;5071113;28;19908;-87
2022/08/23 12:40:20;;;;;;;;;;;33.00;45.40;;;;;;5071171;28;19915;-86
2022/08/23 12:42:46;;;;;;;;;;;33.00;45.60;;;;;;5071110;28;19912;-87
2022/08/23 12:45:13;;;;;;;;;;;33.20;45.10;;;;;;5071208;28;19908;-87
2022/08/23 12:47:43;;;;;;;;;;;33.40;45.00;;;;;;5070474;28;19909;-87
2022/08/23 12:50:24;;;;;;;;;;;33.50;43.70;;;;;;5071011;28;19908;-87
2022/08/23 12:53:16;;;;;;;;;;;33.40;44.80;;;;;;5071052;28;19915;-86
2022/08/23 12:55:43;;;;;;;;;;;33.30;45.00;;;;;;5067774;28;19908;-86
2022/08/23 12:58:09;;;;;;;;;;;33.40;45.20;;;;;;5070950;28;19916;-87
2022/08/23 13:00:35;;;;;;;;;;;33.50;44.90;;;;;;5074029;28;19908;-87
2022/08/23 13:03:02;;;;;;;;;;;33.30;45.10;;;;;;5074656;28;19909;-86
2022/08/23 13:05:35;;;;;;;;;;;33.30;44.50;;;;;;5074490;28;19915;-88
2022/08/23 13:08:03;;;;;;;;;;;33.30;44.70;;;;;;5074416;28;19919;-87
2022/08/23 13:10:29;;;;;;;;;;;33.40;44.50;;;;;;5074529;28;19962;-87
2022/08/23 13:12:54;;;;;;;;;;;33.50;44.60;;;;;;5075916;28;20344;-86
2022/08/23 13:15:39;;;;;;;;;;;33.60;44.10;;;;;;5074543;28;19916;-88
2022/08/23 13:18:04;;;;;;;;;;;33.80;44.20;;;;;;5074274;28;19908;-88
2022/08/23 13:20:30;;;;;;;;;;;33.90;45.30;;;;;;5074175;28;19912;-87
2022/08/23 13:22:59;;;;;;;;;;;33.90;44.20;;;;;;5074265;28;20357;-87
2022/08/23 13:25:26;;;;;;;;;;;34.10;45.30;;;;;;5074127;28;20319;-87
2022/08/23 13:28:03;;;;;;;;;;;34.10;42.90;;;;;;5073926;28;20006;-88
2022/08/23 13:30:30;;;;;;;;;;;33.70;44.80;;;;;;5074157;28;19944;-88
2022/08/23 13:33:08;;;;;;;;;;;33.90;45.80;;;;;;5074274;28;19966;-88
2022/08/23 13:35:35;;;;;;;;;;;34.10;44.00;;;;;;5073928;28;19916;-89
2022/08/23 13:38:09;;;;;;;;;;;34.20;44.90;;;;;;5074037;28;20427;-88
2022/08/23 13:41:07;;;;;;;;;;;34.20;44.30;;;;;;5074097;28;19913;-89
2022/08/23 13:43:36;;;;;;;;;;;34.10;43.60;;;;;;5040952;28;19909;-88
2022/08/23 13:46:10;;;;;;;;;;;34.30;44.50;;;;;;5066339;28;20384;-88
2022/08/23 13:48:42;;;;;;;;;;;34.50;45.00;;;;;;5054093;28;20442;-88
2022/08/23 13:51:18;;;;;;;;;;;34.50;43.70;;;;;;5053993;28;19951;-88
2022/08/23 13:53:43;;;;;;;;;;;34.90;42.00;;;;;;5066465;28;19916;-88
2022/08/23 13:56:09;;;;;;;;;;;35.00;42.00;;;;;;5073545;28;19912;-88
2022/08/23 13:58:35;;;;;;;;;;;35.00;43.40;;;;;;5073839;28;19952;-88
2022/08/23 14:01:01;;;;;;;;;;;35.00;42.90;;;;;;5073796;28;19909;-88
2022/08/23 14:03:27;;;;;;;;;;;34.70;42.90;;;;;;5073188;28;19935;-88
2022/08/23 14:05:53;;;;;;;;;;;34.20;43.00;;;;;;5059293;28;20003;-88
2022/08/23 14:08:19;;;;;;;;;;;34.00;45.10;;;;;;5053634;28;20409;-88
2022/08/23 14:10:48;;;;;;;;;;;34.00;44.40;;;;;;5052912;28;19909;-87
2022/08/23 14:13:14;;;;;;;;;;;34.10;43.70;;;;;;5053788;28;19908;-88
2022/08/23 14:15:41;;;;;;;;;;;34.30;45.20;;;;;;5053346;28;19909;-88
2022/08/23 14:18:06;;;;;;;;;;;34.50;44.00;;;;;;5053817;28;19909;-88
2022/08/23 14:20:32;;;;;;;;;;;34.50;44.40;;;;;;5053085;28;20008;-87
2022/08/23 14:22:57;;;;;;;;;;;34.50;44.50;;;;;;5053262;28;20007;-88
2022/08/23 14:25:23;;;;;;;;;;;34.70;44.80;;;;;;5053266;28;19913;-87
2022/08/23 14:27:49;;;;;;;;;;;34.90;44.80;;;;;;5052909;28;19915;-86
2022/08/23 14:30:21;;;;;;;;;;;35.20;44.80;;;;;;5052940;28;19912;-87
2022/08/23 14:32:47;;;;;;;;;;;35.30;43.80;;;;;;5052908;28;20381;-88
2022/08/23 14:35:12;;;;;;;;;;;35.30;44.20;;;;;;5072766;22;19928;-88
2022/08/23 14:37:38;;;;;;;;;;;35.40;47.00;;;;;;5072811;28;19916;-89